sensor_id;sensor_type;location;lat;lon;timestamp;P1;durP1;ratioP1;P2;durP2;ratioP2
9224;SDS011;4647;48.072;11.616;2022-12-05T00:02:24;16.23;;;10.63;;
9224;SDS011;4647;48.072;11.616;2022-12-05T00:04:50;17.30;;;11.60;;
9224;SDS011;4647;48.072;11.616;2022-12-05T00:07:19;16.30;;;10.80;;
9224;SDS011;4647;48.072;11.616;2022-12-05T00:09:45;19.60;;;11.37;;
9224;SDS011;4647;48.072;11.616;2022-12-05T00:12:12;18.50;;;12.17;;
9224;SDS011;4647;48.072;11.616;2022-12-05T00:14:39;18.83;;;12.23;;
9224;SDS011;4647;48.072;11.616;2022-12-05T00:17:06;19.43;;;12.30;;
9224;SDS011;4647;48.072;11.616;2022-12-05T00:19:32;16.90;;;11.23;;
9224;SDS011;4647;48.072;11.616;2022-12-05T00:21:59;18.60;;;12.63;;
9224;SDS011;4647;48.072;11.616;2022-12-05T00:24:27;18.73;;;12.03;;
9224;SDS011;4647;48.072;11.616;2022-12-05T00:26:54;19.80;;;12.03;;
9224;SDS011;4647;48.072;11.616;2022-12-05T00:29:21;18.40;;;11.77;;
9224;SDS011;4647;48.072;11.616;2022-12-05T00:31:48;20.60;;;12.30;;
9224;SDS011;4647;48.072;11.616;2022-12-05T00:34:15;21.50;;;11.43;;
9224;SDS011;4647;48.072;11.616;2022-12-05T00:36:42;19.87;;;11.57;;
9224;SDS011;4647;48.072;11.616;2022-12-05T00:39:10;19.80;;;12.20;;
9224;SDS011;4647;48.072;11.616;2022-12-05T00:41:40;19.53;;;11.70;;
9224;SDS011;4647;48.072;11.616;2022-12-05T00:44:09;19.27;;;12.33;;
9224;SDS011;4647;48.072;11.616;2022-12-05T00:46:37;21.53;;;13.03;;
9224;SDS011;4647;48.072;11.616;2022-12-05T00:49:05;18.83;;;12.50;;
9224;SDS011;4647;48.072;11.616;2022-12-05T00:51:33;20.43;;;12.47;;
9224;SDS011;4647;48.072;11.616;2022-12-05T00:54:04;20.07;;;12.57;;
9224;SDS011;4647;48.072;11.616;2022-12-05T00:56:32;19.50;;;12.63;;
9224;SDS011;4647;48.072;11.616;2022-12-05T00:59:01;19.73;;;13.27;;
9224;SDS011;4647;48.072;11.616;2022-12-05T01:01:29;23.07;;;13.60;;
9224;SDS011;4647;48.072;11.616;2022-12-05T01:03:58;20.33;;;12.43;;
9224;SDS011;4647;48.072;11.616;2022-12-05T01:06:26;24.50;;;13.23;;
9224;SDS011;4647;48.072;11.616;2022-12-05T01:08:54;21.70;;;12.43;;
9224;SDS011;4647;48.072;11.616;2022-12-05T01:11:22;19.30;;;12.27;;
9224;SDS011;4647;48.072;11.616;2022-12-05T01:13:50;21.67;;;12.53;;
9224;SDS011;4647;48.072;11.616;2022-12-05T01:16:19;20.77;;;12.13;;
9224;SDS011;4647;48.072;11.616;2022-12-05T01:18:48;21.13;;;12.97;;
9224;SDS011;4647;48.072;11.616;2022-12-05T01:21:16;19.27;;;12.03;;
9224;SDS011;4647;48.072;11.616;2022-12-05T01:23:43;22.53;;;13.53;;
9224;SDS011;4647;48.072;11.616;2022-12-05T01:26:10;19.07;;;13.03;;
9224;SDS011;4647;48.072;11.616;2022-12-05T01:28:38;18.37;;;11.90;;
9224;SDS011;4647;48.072;11.616;2022-12-05T01:31:07;20.47;;;12.83;;
9224;SDS011;4647;48.072;11.616;2022-12-05T01:33:38;23.33;;;13.70;;
9224;SDS011;4647;48.072;11.616;2022-12-05T01:36:08;27.10;;;14.53;;
9224;SDS011;4647;48.072;11.616;2022-12-05T01:38:37;24.10;;;14.07;;
9224;SDS011;4647;48.072;11.616;2022-12-05T01:41:04;20.13;;;13.20;;
9224;SDS011;4647;48.072;11.616;2022-12-05T01:43:32;30.43;;;14.37;;
9224;SDS011;4647;48.072;11.616;2022-12-05T01:46:17;23.83;;;14.87;;
9224;SDS011;4647;48.072;11.616;2022-12-05T01:48:45;23.03;;;14.23;;
9224;SDS011;4647;48.072;11.616;2022-12-05T01:51:13;22.17;;;14.17;;
9224;SDS011;4647;48.072;11.616;2022-12-05T01:53:40;26.27;;;13.90;;
9224;SDS011;4647;48.072;11.616;2022-12-05T01:56:07;24.67;;;14.17;;
9224;SDS011;4647;48.072;11.616;2022-12-05T01:58:36;24.37;;;13.33;;
9224;SDS011;4647;48.072;11.616;2022-12-05T02:01:04;20.53;;;13.43;;
9224;SDS011;4647;48.072;11.616;2022-12-05T02:03:31;23.40;;;13.80;;
9224;SDS011;4647;48.072;11.616;2022-12-05T02:06:00;26.13;;;14.80;;
9224;SDS011;4647;48.072;11.616;2022-12-05T02:08:28;22.93;;;13.50;;
9224;SDS011;4647;48.072;11.616;2022-12-05T02:10:55;21.67;;;13.63;;
9224;SDS011;4647;48.072;11.616;2022-12-05T02:13:30;26.50;;;14.60;;
9224;SDS011;4647;48.072;11.616;2022-12-05T02:16:10;21.83;;;13.67;;
9224;SDS011;4647;48.072;11.616;2022-12-05T02:18:44;24.70;;;14.53;;
9224;SDS011;4647;48.072;11.616;2022-12-05T02:21:37;25.40;;;14.50;;
9224;SDS011;4647;48.072;11.616;2022-12-05T02:27:12;29.73;;;15.33;;
9224;SDS011;4647;48.072;11.616;2022-12-05T02:29:51;25.50;;;14.63;;
9224;SDS011;4647;48.072;11.616;2022-12-05T02:32:33;26.93;;;15.10;;
9224;SDS011;4647;48.072;11.616;2022-12-05T02:35:11;33.80;;;16.23;;
9224;SDS011;4647;48.072;11.616;2022-12-05T02:37:48;29.83;;;16.17;;
9224;SDS011;4647;48.072;11.616;2022-12-05T02:40:20;30.20;;;16.80;;
9224;SDS011;4647;48.072;11.616;2022-12-05T02:42:53;34.37;;;18.10;;
9224;SDS011;4647;48.072;11.616;2022-12-05T02:45:26;32.40;;;17.83;;
9224;SDS011;4647;48.072;11.616;2022-12-05T02:47:55;34.40;;;17.70;;
9224;SDS011;4647;48.072;11.616;2022-12-05T02:50:26;32.57;;;16.90;;
9224;SDS011;4647;48.072;11.616;2022-12-05T02:52:57;29.93;;;17.20;;
9224;SDS011;4647;48.072;11.616;2022-12-05T02:55:28;34.27;;;18.03;;
9224;SDS011;4647;48.072;11.616;2022-12-05T02:57:57;32.00;;;17.10;;
9224;SDS011;4647;48.072;11.616;2022-12-05T03:00:28;34.67;;;17.00;;
9224;SDS011;4647;48.072;11.616;2022-12-05T03:02:56;35.63;;;17.73;;
9224;SDS011;4647;48.072;11.616;2022-12-05T03:05:29;34.00;;;19.43;;
9224;SDS011;4647;48.072;11.616;2022-12-05T03:08:01;36.03;;;18.33;;
9224;SDS011;4647;48.072;11.616;2022-12-05T03:10:32;33.80;;;18.30;;
9224;SDS011;4647;48.072;11.616;2022-12-05T03:13:03;33.77;;;18.57;;
9224;SDS011;4647;48.072;11.616;2022-12-05T03:15:35;36.57;;;19.47;;
9224;SDS011;4647;48.072;11.616;2022-12-05T03:18:04;33.03;;;18.57;;
9224;SDS011;4647;48.072;11.616;2022-12-05T03:20:37;34.23;;;19.57;;
9224;SDS011;4647;48.072;11.616;2022-12-05T03:23:10;36.50;;;19.33;;
9224;SDS011;4647;48.072;11.616;2022-12-05T03:25:43;32.67;;;18.90;;
9224;SDS011;4647;48.072;11.616;2022-12-05T03:28:16;37.53;;;19.10;;
9224;SDS011;4647;48.072;11.616;2022-12-05T03:30:49;33.10;;;18.00;;
9224;SDS011;4647;48.072;11.616;2022-12-05T03:33:20;34.10;;;18.13;;
9224;SDS011;4647;48.072;11.616;2022-12-05T03:35:52;33.67;;;18.70;;
9224;SDS011;4647;48.072;11.616;2022-12-05T03:38:25;33.80;;;19.40;;
9224;SDS011;4647;48.072;11.616;2022-12-05T03:40:59;34.87;;;19.80;;
9224;SDS011;4647;48.072;11.616;2022-12-05T03:43:33;35.67;;;20.33;;
9224;SDS011;4647;48.072;11.616;2022-12-05T03:46:11;31.10;;;18.60;;
9224;SDS011;4647;48.072;11.616;2022-12-05T03:48:45;32.60;;;18.93;;
9224;SDS011;4647;48.072;11.616;2022-12-05T03:51:21;33.27;;;19.60;;
9224;SDS011;4647;48.072;11.616;2022-12-05T03:53:55;35.50;;;18.97;;
9224;SDS011;4647;48.072;11.616;2022-12-05T03:56:26;34.57;;;18.67;;
9224;SDS011;4647;48.072;11.616;2022-12-05T03:59:00;35.60;;;20.17;;
9224;SDS011;4647;48.072;11.616;2022-12-05T04:01:33;32.77;;;18.17;;
9224;SDS011;4647;48.072;11.616;2022-12-05T04:04:04;32.73;;;19.37;;
9224;SDS011;4647;48.072;11.616;2022-12-05T04:06:36;36.10;;;19.10;;
9224;SDS011;4647;48.072;11.616;2022-12-05T04:09:06;34.43;;;19.17;;
9224;SDS011;4647;48.072;11.616;2022-12-05T04:11:38;31.47;;;17.67;;
9224;SDS011;4647;48.072;11.616;2022-12-05T04:14:09;34.90;;;18.93;;
9224;SDS011;4647;48.072;11.616;2022-12-05T04:16:42;32.63;;;18.60;;
9224;SDS011;4647;48.072;11.616;2022-12-05T04:19:30;34.77;;;19.13;;
9224;SDS011;4647;48.072;11.616;2022-12-05T04:22:15;33.93;;;19.00;;
9224;SDS011;4647;48.072;11.616;2022-12-05T04:24:43;30.00;;;17.27;;
9224;SDS011;4647;48.072;11.616;2022-12-05T04:27:29;28.87;;;18.83;;
9224;SDS011;4647;48.072;11.616;2022-12-05T04:30:04;29.67;;;17.60;;
9224;SDS011;4647;48.072;11.616;2022-12-05T04:32:36;25.83;;;16.17;;
9224;SDS011;4647;48.072;11.616;2022-12-05T04:35:10;27.70;;;16.73;;
9224;SDS011;4647;48.072;11.616;2022-12-05T04:37:43;24.87;;;15.50;;
9224;SDS011;4647;48.072;11.616;2022-12-05T04:40:16;28.17;;;16.90;;
9224;SDS011;4647;48.072;11.616;2022-12-05T04:42:47;25.93;;;15.33;;
9224;SDS011;4647;48.072;11.616;2022-12-05T04:45:16;24.73;;;15.47;;
9224;SDS011;4647;48.072;11.616;2022-12-05T04:47:48;27.93;;;16.17;;
9224;SDS011;4647;48.072;11.616;2022-12-05T04:50:17;23.70;;;14.97;;
9224;SDS011;4647;48.072;11.616;2022-12-05T04:52:47;24.37;;;15.30;;
9224;SDS011;4647;48.072;11.616;2022-12-05T04:55:17;25.10;;;15.07;;
9224;SDS011;4647;48.072;11.616;2022-12-05T04:57:51;25.37;;;15.10;;
9224;SDS011;4647;48.072;11.616;2022-12-05T05:00:23;22.53;;;14.63;;
9224;SDS011;4647;48.072;11.616;2022-12-05T05:02:53;25.63;;;15.20;;
9224;SDS011;4647;48.072;11.616;2022-12-05T05:05:24;25.27;;;15.90;;
9224;SDS011;4647;48.072;11.616;2022-12-05T05:07:53;23.00;;;15.43;;
9224;SDS011;4647;48.072;11.616;2022-12-05T05:10:21;26.10;;;15.13;;
9224;SDS011;4647;48.072;11.616;2022-12-05T05:12:56;39.33;;;18.20;;
9224;SDS011;4647;48.072;11.616;2022-12-05T05:15:22;34.63;;;18.77;;
9224;SDS011;4647;48.072;11.616;2022-12-05T05:17:49;29.40;;;16.60;;
9224;SDS011;4647;48.072;11.616;2022-12-05T05:20:18;28.13;;;16.27;;
9224;SDS011;4647;48.072;11.616;2022-12-05T05:22:52;23.67;;;15.07;;
9224;SDS011;4647;48.072;11.616;2022-12-05T05:25:19;23.13;;;14.33;;
9224;SDS011;4647;48.072;11.616;2022-12-05T05:27:47;25.83;;;15.37;;
9224;SDS011;4647;48.072;11.616;2022-12-05T05:30:15;24.63;;;14.60;;
9224;SDS011;4647;48.072;11.616;2022-12-05T05:32:42;22.33;;;13.60;;
9224;SDS011;4647;48.072;11.616;2022-12-05T05:35:09;23.53;;;15.07;;
9224;SDS011;4647;48.072;11.616;2022-12-05T05:37:38;23.57;;;14.83;;
9224;SDS011;4647;48.072;11.616;2022-12-05T05:40:06;24.30;;;15.03;;
9224;SDS011;4647;48.072;11.616;2022-12-05T05:42:35;23.37;;;15.00;;
9224;SDS011;4647;48.072;11.616;2022-12-05T05:45:02;24.47;;;14.47;;
9224;SDS011;4647;48.072;11.616;2022-12-05T05:47:29;21.73;;;14.50;;
9224;SDS011;4647;48.072;11.616;2022-12-05T05:49:56;22.40;;;14.43;;
9224;SDS011;4647;48.072;11.616;2022-12-05T05:52:23;21.57;;;13.57;;
9224;SDS011;4647;48.072;11.616;2022-12-05T05:54:51;22.73;;;14.53;;
9224;SDS011;4647;48.072;11.616;2022-12-05T05:57:18;19.93;;;13.53;;
9224;SDS011;4647;48.072;11.616;2022-12-05T05:59:45;22.03;;;13.97;;
9224;SDS011;4647;48.072;11.616;2022-12-05T06:02:12;21.43;;;15.10;;
9224;SDS011;4647;48.072;11.616;2022-12-05T06:04:39;19.60;;;14.30;;
9224;SDS011;4647;48.072;11.616;2022-12-05T06:07:06;20.57;;;14.33;;
9224;SDS011;4647;48.072;11.616;2022-12-05T06:09:32;21.00;;;13.83;;
9224;SDS011;4647;48.072;11.616;2022-12-05T06:12:01;20.23;;;14.23;;
9224;SDS011;4647;48.072;11.616;2022-12-05T06:14:28;20.00;;;13.20;;
9224;SDS011;4647;48.072;11.616;2022-12-05T06:16:55;21.50;;;13.80;;
9224;SDS011;4647;48.072;11.616;2022-12-05T06:19:22;20.77;;;13.43;;
9224;SDS011;4647;48.072;11.616;2022-12-05T06:21:49;21.17;;;13.97;;
9224;SDS011;4647;48.072;11.616;2022-12-05T06:24:16;20.83;;;13.70;;
9224;SDS011;4647;48.072;11.616;2022-12-05T06:26:42;18.87;;;12.80;;
9224;SDS011;4647;48.072;11.616;2022-12-05T06:29:11;18.13;;;12.20;;
9224;SDS011;4647;48.072;11.616;2022-12-05T06:31:37;21.07;;;13.60;;
9224;SDS011;4647;48.072;11.616;2022-12-05T06:34:06;19.63;;;12.77;;
9224;SDS011;4647;48.072;11.616;2022-12-05T06:36:33;19.27;;;13.27;;
9224;SDS011;4647;48.072;11.616;2022-12-05T06:39:00;19.20;;;13.00;;
9224;SDS011;4647;48.072;11.616;2022-12-05T06:41:27;20.27;;;12.80;;
9224;SDS011;4647;48.072;11.616;2022-12-05T06:43:54;20.30;;;12.47;;
9224;SDS011;4647;48.072;11.616;2022-12-05T06:46:23;17.20;;;11.83;;
9224;SDS011;4647;48.072;11.616;2022-12-05T06:48:51;17.77;;;12.83;;
9224;SDS011;4647;48.072;11.616;2022-12-05T06:51:18;16.50;;;12.20;;
9224;SDS011;4647;48.072;11.616;2022-12-05T06:53:45;17.60;;;11.77;;
9224;SDS011;4647;48.072;11.616;2022-12-05T06:56:14;15.20;;;11.07;;
9224;SDS011;4647;48.072;11.616;2022-12-05T06:58:44;19.10;;;12.53;;
9224;SDS011;4647;48.072;11.616;2022-12-05T07:01:12;17.50;;;12.03;;
9224;SDS011;4647;48.072;11.616;2022-12-05T07:03:59;16.97;;;10.97;;
9224;SDS011;4647;48.072;11.616;2022-12-05T07:06:26;17.80;;;12.40;;
9224;SDS011;4647;48.072;11.616;2022-12-05T07:08:53;16.63;;;12.23;;
9224;SDS011;4647;48.072;11.616;2022-12-05T07:11:20;20.67;;;12.10;;
9224;SDS011;4647;48.072;11.616;2022-12-05T07:13:47;15.80;;;11.53;;
9224;SDS011;4647;48.072;11.616;2022-12-05T07:16:14;20.67;;;12.30;;
9224;SDS011;4647;48.072;11.616;2022-12-05T07:18:40;18.70;;;12.63;;
9224;SDS011;4647;48.072;11.616;2022-12-05T07:21:10;20.97;;;12.97;;
9224;SDS011;4647;48.072;11.616;2022-12-05T07:23:39;19.33;;;11.80;;
9224;SDS011;4647;48.072;11.616;2022-12-05T07:26:08;14.90;;;11.43;;
9224;SDS011;4647;48.072;11.616;2022-12-05T07:28:36;15.33;;;11.33;;
9224;SDS011;4647;48.072;11.616;2022-12-05T07:31:04;18.20;;;12.40;;
9224;SDS011;4647;48.072;11.616;2022-12-05T07:33:32;16.23;;;11.30;;
9224;SDS011;4647;48.072;11.616;2022-12-05T07:35:59;17.77;;;11.67;;
9224;SDS011;4647;48.072;11.616;2022-12-05T07:38:28;14.13;;;11.20;;
9224;SDS011;4647;48.072;11.616;2022-12-05T07:40:55;14.83;;;11.37;;
9224;SDS011;4647;48.072;11.616;2022-12-05T07:43:23;16.30;;;11.47;;
9224;SDS011;4647;48.072;11.616;2022-12-05T07:45:50;14.80;;;11.00;;
9224;SDS011;4647;48.072;11.616;2022-12-05T07:48:17;18.63;;;12.73;;
9224;SDS011;4647;48.072;11.616;2022-12-05T07:50:44;15.17;;;11.40;;
9224;SDS011;4647;48.072;11.616;2022-12-05T07:53:10;15.00;;;10.77;;
9224;SDS011;4647;48.072;11.616;2022-12-05T07:55:39;14.53;;;10.93;;
9224;SDS011;4647;48.072;11.616;2022-12-05T07:58:05;12.70;;;10.00;;
9224;SDS011;4647;48.072;11.616;2022-12-05T08:00:32;13.97;;;10.13;;
9224;SDS011;4647;48.072;11.616;2022-12-05T08:03:00;13.60;;;10.53;;
9224;SDS011;4647;48.072;11.616;2022-12-05T08:05:27;14.20;;;10.73;;
9224;SDS011;4647;48.072;11.616;2022-12-05T08:07:55;13.60;;;10.40;;
9224;SDS011;4647;48.072;11.616;2022-12-05T08:10:21;12.87;;;10.10;;
9224;SDS011;4647;48.072;11.616;2022-12-05T08:12:50;13.83;;;10.67;;
9224;SDS011;4647;48.072;11.616;2022-12-05T08:15:17;16.63;;;10.93;;
9224;SDS011;4647;48.072;11.616;2022-12-05T08:17:43;12.90;;;10.50;;
9224;SDS011;4647;48.072;11.616;2022-12-05T08:20:11;14.30;;;10.83;;
9224;SDS011;4647;48.072;11.616;2022-12-05T08:22:38;13.20;;;10.30;;
9224;SDS011;4647;48.072;11.616;2022-12-05T08:25:05;12.43;;;9.93;;
9224;SDS011;4647;48.072;11.616;2022-12-05T08:27:32;13.57;;;10.47;;
9224;SDS011;4647;48.072;11.616;2022-12-05T08:30:01;14.87;;;11.10;;
9224;SDS011;4647;48.072;11.616;2022-12-05T08:32:28;13.07;;;10.97;;
9224;SDS011;4647;48.072;11.616;2022-12-05T08:34:54;13.03;;;10.87;;
9224;SDS011;4647;48.072;11.616;2022-12-05T08:37:21;14.57;;;10.80;;
9224;SDS011;4647;48.072;11.616;2022-12-05T08:39:48;18.20;;;11.13;;
9224;SDS011;4647;48.072;11.616;2022-12-05T08:42:15;15.53;;;11.37;;
9224;SDS011;4647;48.072;11.616;2022-12-05T08:44:42;14.80;;;11.90;;
9224;SDS011;4647;48.072;11.616;2022-12-05T08:47:10;19.33;;;11.90;;
9224;SDS011;4647;48.072;11.616;2022-12-05T08:49:37;20.53;;;11.83;;
9224;SDS011;4647;48.072;11.616;2022-12-05T08:52:04;17.70;;;11.80;;
9224;SDS011;4647;48.072;11.616;2022-12-05T08:54:30;16.43;;;11.00;;
9224;SDS011;4647;48.072;11.616;2022-12-05T08:56:57;16.77;;;11.43;;
9224;SDS011;4647;48.072;11.616;2022-12-05T08:59:24;17.90;;;11.97;;
9224;SDS011;4647;48.072;11.616;2022-12-05T09:01:51;23.63;;;11.43;;
9224;SDS011;4647;48.072;11.616;2022-12-05T09:04:19;18.03;;;12.17;;
9224;SDS011;4647;48.072;11.616;2022-12-05T09:06:46;14.97;;;11.27;;
9224;SDS011;4647;48.072;11.616;2022-12-05T09:09:13;15.93;;;11.67;;
9224;SDS011;4647;48.072;11.616;2022-12-05T09:11:41;17.23;;;10.67;;
9224;SDS011;4647;48.072;11.616;2022-12-05T09:14:10;17.47;;;11.50;;
9224;SDS011;4647;48.072;11.616;2022-12-05T09:16:37;22.10;;;11.20;;
9224;SDS011;4647;48.072;11.616;2022-12-05T09:19:07;17.10;;;11.00;;
9224;SDS011;4647;48.072;11.616;2022-12-05T09:21:39;16.87;;;10.47;;
9224;SDS011;4647;48.072;11.616;2022-12-05T09:24:07;18.83;;;11.47;;
9224;SDS011;4647;48.072;11.616;2022-12-05T09:26:35;15.47;;;10.53;;
9224;SDS011;4647;48.072;11.616;2022-12-05T09:29:02;13.73;;;10.37;;
9224;SDS011;4647;48.072;11.616;2022-12-05T09:31:29;17.47;;;11.37;;
9224;SDS011;4647;48.072;11.616;2022-12-05T09:33:56;14.40;;;11.07;;
9224;SDS011;4647;48.072;11.616;2022-12-05T09:36:23;19.37;;;12.27;;
9224;SDS011;4647;48.072;11.616;2022-12-05T09:38:53;16.57;;;10.93;;
9224;SDS011;4647;48.072;11.616;2022-12-05T09:41:27;19.03;;;11.07;;
9224;SDS011;4647;48.072;11.616;2022-12-05T09:44:31;23.10;;;11.77;;
9224;SDS011;4647;48.072;11.616;2022-12-05T09:47:09;17.67;;;12.30;;
9224;SDS011;4647;48.072;11.616;2022-12-05T09:49:43;17.63;;;11.17;;
9224;SDS011;4647;48.072;11.616;2022-12-05T09:52:16;18.00;;;11.93;;
9224;SDS011;4647;48.072;11.616;2022-12-05T09:54:50;16.37;;;11.03;;
9224;SDS011;4647;48.072;11.616;2022-12-05T09:57:18;16.33;;;11.37;;
9224;SDS011;4647;48.072;11.616;2022-12-05T09:59:51;19.90;;;11.63;;
9224;SDS011;4647;48.072;11.616;2022-12-05T10:02:20;14.23;;;11.13;;
9224;SDS011;4647;48.072;11.616;2022-12-05T10:04:54;14.93;;;10.70;;
9224;SDS011;4647;48.072;11.616;2022-12-05T10:07:30;17.00;;;11.60;;
9224;SDS011;4647;48.072;11.616;2022-12-05T10:10:11;14.47;;;11.03;;
9224;SDS011;4647;48.072;11.616;2022-12-05T10:12:56;20.30;;;11.60;;
9224;SDS011;4647;48.072;11.616;2022-12-05T10:15:32;13.53;;;10.20;;
9224;SDS011;4647;48.072;11.616;2022-12-05T10:18:04;21.27;;;14.07;;
9224;SDS011;4647;48.072;11.616;2022-12-05T10:20:38;20.07;;;12.00;;
9224;SDS011;4647;48.072;11.616;2022-12-05T10:23:13;15.93;;;11.23;;
9224;SDS011;4647;48.072;11.616;2022-12-05T10:25:45;14.17;;;10.40;;
9224;SDS011;4647;48.072;11.616;2022-12-05T10:28:14;15.17;;;11.00;;
9224;SDS011;4647;48.072;11.616;2022-12-05T10:30:45;12.30;;;9.43;;
9224;SDS011;4647;48.072;11.616;2022-12-05T10:33:17;14.13;;;9.93;;
9224;SDS011;4647;48.072;11.616;2022-12-05T10:35:46;14.50;;;10.17;;
9224;SDS011;4647;48.072;11.616;2022-12-05T10:38:18;11.97;;;9.60;;
9224;SDS011;4647;48.072;11.616;2022-12-05T10:40:52;13.90;;;9.50;;
9224;SDS011;4647;48.072;11.616;2022-12-05T10:43:24;12.23;;;9.60;;
9224;SDS011;4647;48.072;11.616;2022-12-05T10:45:52;10.77;;;8.43;;
9224;SDS011;4647;48.072;11.616;2022-12-05T10:48:19;12.07;;;9.77;;
9224;SDS011;4647;48.072;11.616;2022-12-05T10:50:48;14.40;;;9.37;;
9224;SDS011;4647;48.072;11.616;2022-12-05T10:53:17;11.77;;;9.50;;
9224;SDS011;4647;48.072;11.616;2022-12-05T10:55:48;13.50;;;9.23;;
9224;SDS011;4647;48.072;11.616;2022-12-05T10:58:17;11.93;;;9.60;;
9224;SDS011;4647;48.072;11.616;2022-12-05T11:00:48;12.37;;;9.07;;
9224;SDS011;4647;48.072;11.616;2022-12-05T11:03:24;10.17;;;8.70;;
9224;SDS011;4647;48.072;11.616;2022-12-05T11:05:53;10.30;;;8.53;;
9224;SDS011;4647;48.072;11.616;2022-12-05T11:08:23;10.53;;;8.57;;
9224;SDS011;4647;48.072;11.616;2022-12-05T11:11:03;9.10;;;7.87;;
9224;SDS011;4647;48.072;11.616;2022-12-05T11:13:31;10.40;;;8.23;;
9224;SDS011;4647;48.072;11.616;2022-12-05T11:15:59;9.43;;;7.83;;
9224;SDS011;4647;48.072;11.616;2022-12-05T11:18:27;9.23;;;8.00;;
9224;SDS011;4647;48.072;11.616;2022-12-05T11:20:57;11.30;;;8.67;;
9224;SDS011;4647;48.072;11.616;2022-12-05T11:23:34;13.03;;;8.27;;
9224;SDS011;4647;48.072;11.616;2022-12-05T11:26:03;10.80;;;8.70;;
9224;SDS011;4647;48.072;11.616;2022-12-05T11:28:39;10.60;;;8.63;;
9224;SDS011;4647;48.072;11.616;2022-12-05T11:31:17;9.83;;;8.40;;
9224;SDS011;4647;48.072;11.616;2022-12-05T11:33:57;13.60;;;9.00;;
9224;SDS011;4647;48.072;11.616;2022-12-05T11:36:30;9.53;;;8.07;;
9224;SDS011;4647;48.072;11.616;2022-12-05T11:39:04;10.43;;;8.43;;
9224;SDS011;4647;48.072;11.616;2022-12-05T11:41:36;11.23;;;8.60;;
9224;SDS011;4647;48.072;11.616;2022-12-05T11:44:24;12.27;;;8.80;;
9224;SDS011;4647;48.072;11.616;2022-12-05T11:47:05;10.37;;;8.33;;
9224;SDS011;4647;48.072;11.616;2022-12-05T11:49:43;12.93;;;8.87;;
9224;SDS011;4647;48.072;11.616;2022-12-05T11:52:26;10.07;;;7.90;;
9224;SDS011;4647;48.072;11.616;2022-12-05T11:55:04;9.03;;;7.83;;
9224;SDS011;4647;48.072;11.616;2022-12-05T11:57:45;9.23;;;7.93;;
9224;SDS011;4647;48.072;11.616;2022-12-05T12:00:32;7.80;;;6.67;;
9224;SDS011;4647;48.072;11.616;2022-12-05T12:03:17;9.20;;;7.80;;
9224;SDS011;4647;48.072;11.616;2022-12-05T12:06:06;8.27;;;7.00;;
9224;SDS011;4647;48.072;11.616;2022-12-05T12:08:50;8.07;;;7.10;;
9224;SDS011;4647;48.072;11.616;2022-12-05T12:11:40;8.97;;;7.23;;
9224;SDS011;4647;48.072;11.616;2022-12-05T12:14:18;10.13;;;7.77;;
9224;SDS011;4647;48.072;11.616;2022-12-05T12:16:52;9.13;;;7.20;;
9224;SDS011;4647;48.072;11.616;2022-12-05T12:19:37;9.27;;;7.33;;
9224;SDS011;4647;48.072;11.616;2022-12-05T12:22:18;10.17;;;7.57;;
9224;SDS011;4647;48.072;11.616;2022-12-05T12:25:02;8.60;;;6.83;;
9224;SDS011;4647;48.072;11.616;2022-12-05T12:27:43;10.17;;;7.60;;
9224;SDS011;4647;48.072;11.616;2022-12-05T12:30:19;8.77;;;6.30;;
9224;SDS011;4647;48.072;11.616;2022-12-05T12:32:53;8.33;;;6.70;;
9224;SDS011;4647;48.072;11.616;2022-12-05T12:35:27;7.83;;;6.40;;
9224;SDS011;4647;48.072;11.616;2022-12-05T12:40:50;7.27;;;5.80;;
9224;SDS011;4647;48.072;11.616;2022-12-05T12:43:27;7.47;;;5.47;;
9224;SDS011;4647;48.072;11.616;2022-12-05T12:46:17;7.40;;;5.37;;
9224;SDS011;4647;48.072;11.616;2022-12-05T12:48:56;6.33;;;5.00;;
9224;SDS011;4647;48.072;11.616;2022-12-05T12:51:33;6.10;;;4.93;;
9224;SDS011;4647;48.072;11.616;2022-12-05T12:54:10;5.87;;;4.90;;
9224;SDS011;4647;48.072;11.616;2022-12-05T12:56:54;6.73;;;5.43;;
9224;SDS011;4647;48.072;11.616;2022-12-05T12:59:46;8.70;;;5.20;;
9224;SDS011;4647;48.072;11.616;2022-12-05T13:02:25;5.63;;;4.00;;
9224;SDS011;4647;48.072;11.616;2022-12-05T13:04:59;5.43;;;4.43;;
9224;SDS011;4647;48.072;11.616;2022-12-05T13:07:33;4.93;;;4.10;;
9224;SDS011;4647;48.072;11.616;2022-12-05T13:10:05;5.87;;;4.30;;
9224;SDS011;4647;48.072;11.616;2022-12-05T13:12:39;5.23;;;4.63;;
9224;SDS011;4647;48.072;11.616;2022-12-05T13:15:09;5.30;;;4.43;;
9224;SDS011;4647;48.072;11.616;2022-12-05T13:17:42;6.43;;;4.90;;
9224;SDS011;4647;48.072;11.616;2022-12-05T13:20:13;5.63;;;4.83;;
9224;SDS011;4647;48.072;11.616;2022-12-05T13:22:42;4.73;;;4.23;;
9224;SDS011;4647;48.072;11.616;2022-12-05T13:25:12;6.33;;;4.97;;
9224;SDS011;4647;48.072;11.616;2022-12-05T13:27:39;6.60;;;4.87;;
9224;SDS011;4647;48.072;11.616;2022-12-05T13:30:20;5.47;;;4.60;;
9224;SDS011;4647;48.072;11.616;2022-12-05T13:32:49;5.73;;;4.43;;
9224;SDS011;4647;48.072;11.616;2022-12-05T13:35:23;5.00;;;4.00;;
9224;SDS011;4647;48.072;11.616;2022-12-05T13:38:20;5.70;;;4.57;;
9224;SDS011;4647;48.072;11.616;2022-12-05T13:41:06;5.07;;;4.33;;
9224;SDS011;4647;48.072;11.616;2022-12-05T13:43:51;5.07;;;4.27;;
9224;SDS011;4647;48.072;11.616;2022-12-05T13:46:21;4.63;;;3.90;;
9224;SDS011;4647;48.072;11.616;2022-12-05T13:48:56;9.13;;;3.90;;
9224;SDS011;4647;48.072;11.616;2022-12-05T13:51:29;4.00;;;3.50;;
9224;SDS011;4647;48.072;11.616;2022-12-05T13:53:59;3.50;;;3.20;;
9224;SDS011;4647;48.072;11.616;2022-12-05T13:56:44;5.67;;;3.13;;
9224;SDS011;4647;48.072;11.616;2022-12-05T14:11:12;5.33;;;3.00;;
9224;SDS011;4647;48.072;11.616;2022-12-05T14:13:40;3.80;;;3.13;;
9224;SDS011;4647;48.072;11.616;2022-12-05T14:22:20;4.33;;;3.47;;
9224;SDS011;4647;48.072;11.616;2022-12-05T14:25:10;3.37;;;3.07;;
9224;SDS011;4647;48.072;11.616;2022-12-05T14:27:49;5.93;;;3.57;;
9224;SDS011;4647;48.072;11.616;2022-12-05T14:30:23;4.97;;;3.47;;
9224;SDS011;4647;48.072;11.616;2022-12-05T14:33:02;3.73;;;3.27;;
9224;SDS011;4647;48.072;11.616;2022-12-05T14:35:29;4.20;;;3.23;;
9224;SDS011;4647;48.072;11.616;2022-12-05T14:38:05;3.47;;;2.90;;
9224;SDS011;4647;48.072;11.616;2022-12-05T14:40:45;4.00;;;3.20;;
9224;SDS011;4647;48.072;11.616;2022-12-05T14:43:17;4.53;;;3.43;;
9224;SDS011;4647;48.072;11.616;2022-12-05T14:45:54;3.10;;;2.80;;
9224;SDS011;4647;48.072;11.616;2022-12-05T14:48:25;4.53;;;3.23;;
9224;SDS011;4647;48.072;11.616;2022-12-05T14:50:55;4.77;;;3.73;;
9224;SDS011;4647;48.072;11.616;2022-12-05T14:53:33;3.40;;;3.10;;
9224;SDS011;4647;48.072;11.616;2022-12-05T14:56:13;3.70;;;3.40;;
9224;SDS011;4647;48.072;11.616;2022-12-05T14:58:47;5.07;;;4.13;;
9224;SDS011;4647;48.072;11.616;2022-12-05T15:01:17;4.60;;;4.10;;
9224;SDS011;4647;48.072;11.616;2022-12-05T15:03:57;3.97;;;3.53;;
9224;SDS011;4647;48.072;11.616;2022-12-05T15:06:32;4.23;;;3.70;;
9224;SDS011;4647;48.072;11.616;2022-12-05T15:09:03;3.87;;;3.47;;
9224;SDS011;4647;48.072;11.616;2022-12-05T15:11:33;4.43;;;3.63;;
9224;SDS011;4647;48.072;11.616;2022-12-05T15:14:12;4.07;;;3.60;;
9224;SDS011;4647;48.072;11.616;2022-12-05T15:16:44;3.83;;;3.37;;
9224;SDS011;4647;48.072;11.616;2022-12-05T15:19:14;4.70;;;4.20;;
9224;SDS011;4647;48.072;11.616;2022-12-05T15:21:46;5.77;;;4.30;;
9224;SDS011;4647;48.072;11.616;2022-12-05T15:24:18;5.30;;;3.73;;
9224;SDS011;4647;48.072;11.616;2022-12-05T15:26:45;4.40;;;3.97;;
9224;SDS011;4647;48.072;11.616;2022-12-05T15:29:16;4.43;;;3.87;;
9224;SDS011;4647;48.072;11.616;2022-12-05T15:31:51;4.63;;;3.70;;